createdAt,value
2022-08-03T00:00:21.586Z,99440.66
2022-08-03T00:02:48.162Z,99434.59
2022-08-03T00:05:14.825Z,99431.13
2022-08-03T00:07:41.787Z,99433.41
2022-08-03T00:10:09.179Z,99433.97
2022-08-03T00:12:36.494Z,99428.63
2022-08-03T00:15:03.958Z,99436.81
2022-08-03T00:17:52.486Z,99441.16
2022-08-03T00:20:23.834Z,99443.72
2022-08-03T00:22:50.694Z,99440.81
2022-08-03T00:25:18.142Z,99435.56
2022-08-03T00:27:44.936Z,99442.53
2022-08-03T00:30:12.189Z,99445.47
2022-08-03T00:32:44.303Z,99440.59
2022-08-03T00:35:32.518Z,99442.69
2022-08-03T00:37:59.799Z,99435.56
2022-08-03T00:40:26.594Z,99436.44
2022-08-03T00:42:54.578Z,99437.38
2022-08-03T00:45:25.148Z,99432.84
2022-08-03T00:47:52.104Z,99437.03
2022-08-03T00:50:19.853Z,99427.31
2022-08-03T00:52:47.322Z,99434.91
2022-08-03T00:55:14.191Z,99424.09
2022-08-03T00:57:42.386Z,99432.56
2022-08-03T01:00:11.281Z,99423.41
2022-08-03T01:02:39.442Z,99417.00
2022-08-03T01:05:07.827Z,99422.94
2022-08-03T01:07:43.966Z,99418.56
2022-08-03T01:10:34.414Z,99418.00
2022-08-03T01:13:59.882Z,99417.22
2022-08-03T01:16:36.532Z,99418.28
2022-08-03T01:19:16.171Z,99414.69
2022-08-03T01:21:59.638Z,99418.78
2022-08-03T01:24:32.132Z,99411.69
2022-08-03T01:27:26.006Z,99408.91
2022-08-03T01:30:04.482Z,99409.44
2022-08-03T01:32:59.700Z,99407.38
2022-08-03T01:35:28.070Z,99407.94
2022-08-03T01:38:04.864Z,99401.78
2022-08-03T01:40:34.080Z,99405.25
2022-08-03T01:43:03.186Z,99401.91
2022-08-03T01:45:34.197Z,99400.00
2022-08-03T01:48:02.880Z,99399.09
2022-08-03T01:50:31.832Z,99403.03
2022-08-03T01:52:59.205Z,99413.72
2022-08-03T01:55:29.965Z,99410.91
2022-08-03T01:58:05.504Z,99400.59
2022-08-03T02:00:35.693Z,99406.19
2022-08-03T02:03:07.103Z,99401.75
2022-08-03T02:05:35.233Z,99410.63
2022-08-03T02:08:04.825Z,99405.81
2022-08-03T02:10:35.838Z,99403.28
2022-08-03T02:13:05.188Z,99404.22
2022-08-03T02:15:33.850Z,99408.78
2022-08-03T02:18:02.471Z,99404.41
2022-08-03T02:20:33.158Z,99402.66
2022-08-03T02:22:59.846Z,99409.84
2022-08-03T02:25:26.683Z,99410.59
2022-08-03T02:27:57.839Z,99412.47
2022-08-03T02:30:31.036Z,99411.97
2022-08-03T02:32:59.355Z,99418.97
2022-08-03T02:35:29.601Z,99422.88
2022-08-03T02:38:04.634Z,99421.25
2022-08-03T02:40:33.118Z,99426.47
2022-08-03T02:43:03.664Z,99423.22
2022-08-03T02:45:32.891Z,99419.19
2022-08-03T02:48:04.139Z,99427.41
2022-08-03T02:50:33.512Z,99428.03
2022-08-03T02:53:03.093Z,99429.47
2022-08-03T02:55:31.550Z,99423.59
2022-08-03T02:58:01.704Z,99430.31
2022-08-03T03:00:30.890Z,99435.28
2022-08-03T03:03:00.405Z,99425.84
2022-08-03T03:05:54.449Z,99428.88
2022-08-03T03:08:18.741Z,99419.50
2022-08-03T03:10:48.207Z,99415.59
2022-08-03T03:13:16.069Z,99429.25
2022-08-03T03:15:45.775Z,99422.59
2022-08-03T03:18:13.001Z,99426.81
2022-08-03T03:20:41.047Z,99430.88
2022-08-03T03:23:09.628Z,99430.47
2022-08-03T03:25:37.002Z,99425.56
2022-08-03T03:28:06.436Z,99430.69
2022-08-03T03:30:33.493Z,99432.88
2022-08-03T03:33:00.266Z,99433.31
2022-08-03T03:35:27.878Z,99427.41
2022-08-03T03:37:54.860Z,99426.25
2022-08-03T03:40:22.402Z,99424.75
2022-08-03T03:42:49.972Z,99431.78
2022-08-03T03:45:17.850Z,99435.00
2022-08-03T03:47:44.480Z,99437.50
2022-08-03T03:50:15.459Z,99443.19
2022-08-03T03:52:42.391Z,99444.34
2022-08-03T03:55:09.099Z,99439.66
2022-08-03T03:57:35.685Z,99440.91
2022-08-03T04:00:02.316Z,99439.38
2022-08-03T04:02:28.950Z,99440.38
2022-08-03T04:05:14.013Z,99447.78
2022-08-03T04:08:18.763Z,99453.31
2022-08-03T04:11:01.160Z,99454.47
2022-08-03T04:13:41.100Z,99457.31
2022-08-03T04:16:12.223Z,99450.28
2022-08-03T04:18:42.179Z,99456.06
2022-08-03T04:21:12.198Z,99452.47
2022-08-03T04:23:45.115Z,99447.63
2022-08-03T04:26:15.143Z,99463.31
2022-08-03T04:28:44.819Z,99470.69
2022-08-03T04:31:12.338Z,99465.38
2022-08-03T04:33:41.191Z,99464.09
2022-08-03T04:36:10.899Z,99461.59
2022-08-03T04:38:52.489Z,99465.72
2022-08-03T04:41:22.811Z,99476.00
2022-08-03T04:43:51.963Z,99479.41
2022-08-03T04:46:22.608Z,99478.28
2022-08-03T04:48:49.988Z,99489.06
2022-08-03T04:51:17.174Z,99491.50
2022-08-03T04:53:44.398Z,99494.78
2022-08-03T04:56:11.156Z,99497.53
2022-08-03T04:58:37.850Z,99502.59
2022-08-03T05:01:04.479Z,99501.03
2022-08-03T05:03:31.937Z,99499.09
2022-08-03T05:06:01.781Z,99502.06
2022-08-03T05:08:36.898Z,99505.25
2022-08-03T05:11:13.186Z,99506.56
2022-08-03T05:13:39.747Z,99511.16
2022-08-03T05:16:07.673Z,99517.03
2022-08-03T05:18:34.282Z,99512.88
2022-08-03T05:21:00.839Z,99516.50
2022-08-03T05:23:27.726Z,99514.63
2022-08-03T05:25:54.239Z,99514.56
2022-08-03T05:28:20.837Z,99512.78
2022-08-03T05:30:47.437Z,99518.81
2022-08-03T05:33:14.343Z,99520.06
2022-08-03T05:36:00.462Z,99518.91
2022-08-03T05:38:28.685Z,99525.81
2022-08-03T05:41:20.182Z,99527.34
2022-08-03T05:43:44.135Z,99527.78
2022-08-03T05:46:12.157Z,99526.88
2022-08-03T05:48:40.002Z,99526.16
2022-08-03T05:51:11.671Z,99527.41
2022-08-03T05:53:39.798Z,99528.19
2022-08-03T05:56:13.928Z,99527.13
2022-08-03T05:58:46.155Z,99521.47
2022-08-03T06:01:12.880Z,99532.91
2022-08-03T06:03:39.702Z,99532.72
2022-08-03T06:06:06.354Z,99530.00
2022-08-03T06:08:33.025Z,99530.59
2022-08-03T06:10:59.857Z,99531.47
2022-08-03T06:13:26.431Z,99530.09
2022-08-03T06:15:52.986Z,99531.00
2022-08-03T06:18:20.019Z,99532.72
2022-08-03T06:20:47.184Z,99536.13
2022-08-03T06:23:18.033Z,99530.75
2022-08-03T06:25:45.279Z,99539.22
2022-08-03T06:31:01.034Z,99541.31
2022-08-03T06:34:30.060Z,99539.19
2022-08-03T06:36:14.695Z,99541.75
2022-08-03T06:38:41.852Z,99551.13
2022-08-03T06:41:08.445Z,99558.06
2022-08-03T06:43:37.641Z,99557.13
2022-08-03T06:46:05.609Z,99553.41
2022-08-03T06:48:32.425Z,99565.53
2022-08-03T06:50:59.422Z,99568.69
2022-08-03T06:53:27.006Z,99562.19
2022-08-03T06:55:55.007Z,99568.28
2022-08-03T06:58:23.016Z,99563.09
2022-08-03T07:00:49.770Z,99570.69
2022-08-03T07:03:16.840Z,99571.44
2022-08-03T07:05:46.568Z,99579.06
2022-08-03T07:08:14.089Z,99570.97
2022-08-03T07:10:40.867Z,99579.22
2022-08-03T07:13:07.676Z,99573.66
2022-08-03T07:15:38.323Z,99572.78
2022-08-03T07:18:27.636Z,99577.78
2022-08-03T07:20:58.484Z,99581.97
2022-08-03T07:23:25.767Z,99582.50
2022-08-03T07:25:52.596Z,99579.47
2022-08-03T07:28:19.838Z,99575.59
2022-08-03T07:30:46.481Z,99566.59
2022-08-03T07:33:13.715Z,99563.00
2022-08-03T07:35:40.279Z,99567.19
2022-08-03T07:38:06.912Z,99572.38
2022-08-03T07:40:33.515Z,99561.69
2022-08-03T07:43:00.470Z,99567.72
2022-08-03T07:45:27.114Z,99572.72
2022-08-03T07:47:54.542Z,99571.59
2022-08-03T07:50:22.386Z,99576.78
2022-08-03T07:52:50.227Z,99578.47
2022-08-03T07:55:21.964Z,99572.16
2022-08-03T07:58:16.501Z,99578.09
2022-08-03T08:00:45.906Z,99580.53
2022-08-03T08:03:13.256Z,99580.09
2022-08-03T08:05:39.877Z,99581.56
2022-08-03T08:08:06.902Z,99587.56
2022-08-03T08:10:33.935Z,99589.13
2022-08-03T08:13:01.821Z,99582.03
2022-08-03T08:15:28.510Z,99594.09
2022-08-03T08:17:57.248Z,99588.88
2022-08-03T08:20:27.923Z,99585.41
2022-08-03T08:22:57.085Z,99586.06
2022-08-03T08:25:26.654Z,99598.66
2022-08-03T08:28:29.648Z,99595.00
2022-08-03T08:30:40.607Z,99594.66
2022-08-03T08:33:08.635Z,99597.09
2022-08-03T08:35:37.287Z,99594.13
2022-08-03T08:38:05.593Z,99597.34
2022-08-03T08:40:33.487Z,99591.16
2022-08-03T08:43:00.186Z,99592.44
2022-08-03T08:45:27.678Z,99594.63
2022-08-03T08:48:01.044Z,99582.53
2022-08-03T08:50:30.715Z,99592.09
2022-08-03T08:53:02.834Z,99589.47
2022-08-03T08:55:30.105Z,99589.53
2022-08-03T08:58:20.880Z,99591.88
2022-08-03T09:00:48.528Z,99591.19
2022-08-03T09:03:22.681Z,99598.13
2022-08-03T09:05:58.825Z,99596.19
2022-08-03T09:08:26.051Z,99597.59
2022-08-03T09:10:53.548Z,99605.66
2022-08-03T09:13:20.141Z,99596.91
2022-08-03T09:16:00.966Z,99599.56
2022-08-03T09:18:32.700Z,99604.31
2022-08-03T09:21:32.109Z,99594.63
2022-08-03T09:24:03.293Z,99592.41
2022-08-03T09:26:32.249Z,99589.44
2022-08-03T09:29:05.678Z,99599.13
2022-08-03T09:31:46.990Z,99595.56
2022-08-03T09:34:17.874Z,99596.09
2022-08-03T09:36:49.873Z,99596.00
2022-08-03T09:39:40.574Z,99591.69
2022-08-03T09:42:08.477Z,99588.38
2022-08-03T09:44:42.715Z,99591.97
2022-08-03T09:47:14.487Z,99590.34
2022-08-03T09:49:43.210Z,99595.31
2022-08-03T09:52:33.284Z,99597.31
2022-08-03T09:56:32.513Z,99586.50
2022-08-03T09:58:10.768Z,99597.22
2022-08-03T10:01:04.158Z,99590.25
2022-08-03T10:03:35.101Z,99588.38
2022-08-03T10:06:22.287Z,99590.94
2022-08-03T10:09:11.218Z,99591.00
2022-08-03T10:11:42.048Z,99590.84
2022-08-03T10:14:21.204Z,99584.09
2022-08-03T10:16:48.566Z,99583.56
2022-08-03T10:19:15.982Z,99588.25
2022-08-03T10:21:53.622Z,99587.25
2022-08-03T10:24:25.483Z,99588.63
2022-08-03T10:26:57.009Z,99585.53
2022-08-03T10:29:28.215Z,99580.25
2022-08-03T10:31:58.908Z,99577.91
2022-08-03T10:34:29.014Z,99575.28
2022-08-03T10:36:58.754Z,99570.88
2022-08-03T10:39:29.171Z,99569.75
2022-08-03T10:41:59.858Z,99568.03
2022-08-03T10:44:37.151Z,99564.88
2022-08-03T10:47:04.966Z,99561.09
2022-08-03T10:49:34.722Z,99571.63
2022-08-03T10:52:12.837Z,99557.44
2022-08-03T10:55:01.076Z,99557.28
2022-08-03T10:57:42.986Z,99559.50
2022-08-03T11:00:21.794Z,99564.84
2022-08-03T11:03:06.787Z,99563.03
2022-08-03T11:05:36.141Z,99562.66
2022-08-03T11:08:37.050Z,99556.78
2022-08-03T11:11:18.916Z,99552.25
2022-08-03T11:14:05.337Z,99555.47
2022-08-03T11:16:35.726Z,99551.72
2022-08-03T11:19:04.927Z,99542.34
2022-08-03T11:21:52.391Z,99529.78
2022-08-03T11:24:37.229Z,99529.31
2022-08-03T11:27:15.663Z,99531.75
2022-08-03T11:30:04.057Z,99528.75
2022-08-03T11:32:49.092Z,99529.97
2022-08-03T11:35:16.905Z,99537.53
2022-08-03T11:38:03.251Z,99524.75
2022-08-03T11:40:47.361Z,99525.59
2022-08-03T11:43:30.628Z,99521.69
2022-08-03T11:46:02.120Z,99511.16
2022-08-03T11:48:33.828Z,99513.16
2022-08-03T11:51:01.639Z,99501.84
2022-08-03T11:53:28.819Z,99506.72
2022-08-03T11:55:59.674Z,99504.88
2022-08-03T11:58:57.762Z,99502.25
2022-08-03T12:01:21.252Z,99495.59
2022-08-03T12:03:49.891Z,99499.31
2022-08-03T12:06:18.078Z,99489.34
2022-08-03T12:08:45.962Z,99483.22
2022-08-03T12:11:15.997Z,99490.78
2022-08-03T12:14:44.635Z,99488.69
2022-08-03T12:16:32.118Z,99482.50
2022-08-03T12:19:05.038Z,99479.69
2022-08-03T12:21:32.300Z,99489.31
2022-08-03T12:24:01.623Z,99494.19
2022-08-03T12:26:30.091Z,99485.38
2022-08-03T12:28:56.934Z,99481.13
2022-08-03T12:31:23.561Z,99490.78
2022-08-03T12:34:03.774Z,99491.31
2022-08-03T12:36:32.897Z,99489.31
2022-08-03T12:39:06.102Z,99495.56
2022-08-03T12:41:35.462Z,99481.44
2022-08-03T12:44:07.024Z,99484.84
2022-08-03T12:46:38.047Z,99486.00
2022-08-03T12:49:13.564Z,99483.47
2022-08-03T12:51:42.839Z,99479.63
2022-08-03T12:54:24.261Z,99478.03
2022-08-03T12:57:04.565Z,99464.66
2022-08-03T12:59:40.637Z,99466.47
2022-08-03T13:02:14.353Z,99463.94
2022-08-03T13:04:42.527Z,99461.38
2022-08-03T13:07:12.866Z,99460.00
2022-08-03T13:09:45.051Z,99460.75
2022-08-03T13:12:17.889Z,99456.38
2022-08-03T13:14:47.950Z,99446.84
2022-08-03T13:17:17.201Z,99448.00
2022-08-03T13:19:45.384Z,99444.94
2022-08-03T13:22:17.310Z,99442.59
2022-08-03T13:24:46.117Z,99443.44
2022-08-03T13:28:04.929Z,99436.13
2022-08-03T13:29:59.582Z,99446.00
2022-08-03T13:32:26.146Z,99436.97
2022-08-03T13:34:52.814Z,99425.31
2022-08-03T13:37:19.502Z,99428.78
2022-08-03T13:39:59.801Z,99424.97
2022-08-03T13:42:30.552Z,99427.38
2022-08-03T13:44:57.231Z,99421.19
2022-08-03T13:47:23.883Z,99428.72
2022-08-03T13:49:54.862Z,99416.91
2022-08-03T13:52:27.829Z,99411.91
2022-08-03T13:54:54.530Z,99409.59
2022-08-03T13:58:02.724Z,99403.00
2022-08-03T14:00:08.644Z,99396.19
2022-08-03T14:02:35.368Z,99396.72
2022-08-03T14:05:01.966Z,99399.53
2022-08-03T14:07:28.576Z,99395.50
2022-08-03T14:09:55.102Z,99391.69
2022-08-03T14:12:21.605Z,99394.44
2022-08-03T14:14:48.133Z,99386.50
2022-08-03T14:17:16.321Z,99388.81
2022-08-03T14:19:53.629Z,99381.31
2022-08-03T14:22:21.760Z,99376.09
2022-08-03T14:24:49.408Z,99372.19
2022-08-03T14:27:16.735Z,99366.66
2022-08-03T14:29:43.573Z,99376.09
2022-08-03T14:32:13.203Z,99367.84
2022-08-03T14:34:41.225Z,99363.63
2022-08-03T14:37:08.246Z,99358.88
2022-08-03T14:42:22.050Z,99346.94
2022-08-03T14:44:48.675Z,99340.03
2022-08-03T14:47:15.526Z,99342.19
2022-08-03T14:50:36.344Z,99336.91
2022-08-03T14:52:30.877Z,99333.31
2022-08-03T14:54:57.886Z,99326.53
2022-08-03T14:57:25.072Z,99327.53
2022-08-03T14:59:55.475Z,99327.28
2022-08-03T15:02:24.617Z,99314.00
2022-08-03T15:04:52.699Z,99319.91
2022-08-03T15:07:20.397Z,99309.59
2022-08-03T15:09:47.744Z,99314.94
2022-08-03T15:12:14.347Z,99309.97
2022-08-03T15:14:41.086Z,99310.03
2022-08-03T15:17:07.906Z,99308.06
2022-08-03T15:20:00.264Z,99313.59
2022-08-03T15:22:24.846Z,99308.66
2022-08-03T15:24:52.324Z,99305.91
2022-08-03T15:27:19.231Z,99308.28
2022-08-03T15:30:07.647Z,99305.53
2022-08-03T15:32:34.327Z,99303.00
2022-08-03T15:35:01.154Z,99299.34
2022-08-03T15:37:28.442Z,99296.31
2022-08-03T15:40:00.069Z,99295.81
2022-08-03T15:42:28.498Z,99301.59
2022-08-03T15:44:55.831Z,99295.41
2022-08-03T15:47:22.655Z,99292.16
2022-08-03T15:49:49.735Z,99289.63
2022-08-03T15:52:16.297Z,99293.03
2022-08-03T15:54:42.956Z,99287.78
2022-08-03T15:57:09.526Z,99284.84
2022-08-03T15:59:36.067Z,99282.53
2022-08-03T16:02:02.793Z,99274.28
2022-08-03T16:04:29.436Z,99279.47
2022-08-03T16:06:56.051Z,99288.34
2022-08-03T16:09:24.053Z,99284.56
2022-08-03T16:12:14.488Z,99289.19
2022-08-03T16:14:51.931Z,99283.38
2022-08-03T16:17:19.548Z,99275.53
2022-08-03T16:19:46.350Z,99276.38
2022-08-03T16:22:14.374Z,99275.94
2022-08-03T16:24:41.359Z,99270.91
2022-08-03T16:27:37.353Z,99280.03
2022-08-03T16:29:54.760Z,99280.59
2022-08-03T16:32:21.390Z,99277.59
2022-08-03T16:34:48.249Z,99276.88
2022-08-03T16:37:37.748Z,99282.66
2022-08-03T16:40:02.771Z,99284.03
2022-08-03T16:42:29.494Z,99278.41
2022-08-03T16:44:56.031Z,99272.88
2022-08-03T16:47:23.033Z,99276.31
2022-08-03T16:49:56.101Z,99271.66
2022-08-03T16:52:24.371Z,99271.81
2022-08-03T16:54:53.786Z,99280.34
2022-08-03T16:57:56.066Z,99273.97
2022-08-03T17:00:32.870Z,99274.44
2022-08-03T17:03:04.395Z,99269.84
2022-08-03T17:05:47.460Z,99268.78
2022-08-03T17:08:15.729Z,99271.47
2022-08-03T17:10:45.279Z,99276.88
2022-08-03T17:13:39.707Z,99279.75
2022-08-03T17:16:04.365Z,99273.66
2022-08-03T17:18:37.681Z,99284.19
2022-08-03T17:21:10.508Z,99286.53
2022-08-03T17:24:00.407Z,99287.09
2022-08-03T17:26:30.492Z,99292.72
2022-08-03T17:29:11.438Z,99299.34
2022-08-03T17:31:48.974Z,99302.25
2022-08-03T17:34:17.633Z,99300.81
2022-08-03T17:39:56.106Z,99296.25
2022-08-03T17:42:30.615Z,99299.03
2022-08-03T17:45:02.152Z,99302.78
2022-08-03T17:47:42.671Z,99291.50
2022-08-03T17:50:23.959Z,99294.69
2022-08-03T17:53:07.820Z,99294.09
2022-08-03T17:55:57.277Z,99288.28
2022-08-03T17:58:37.702Z,99291.09
2022-08-03T18:01:58.287Z,99276.94
2022-08-03T18:04:21.691Z,99280.56
2022-08-03T18:06:59.523Z,99275.81
2022-08-03T18:10:03.252Z,99284.41
2022-08-03T18:12:27.164Z,99277.75
2022-08-03T18:15:01.029Z,99281.97
2022-08-03T18:17:55.603Z,99282.78
2022-08-03T18:20:34.548Z,99297.44
2022-08-03T18:23:06.869Z,99303.88
2022-08-03T18:25:45.162Z,99311.50
2022-08-03T18:28:18.546Z,99306.97
2022-08-03T18:30:54.387Z,99308.50
2022-08-03T18:34:19.213Z,99314.28
2022-08-03T18:36:21.670Z,99315.22
2022-08-03T18:38:51.864Z,99313.19
2022-08-03T18:41:33.370Z,99315.97
2022-08-03T18:44:06.674Z,99311.13
2022-08-03T18:46:47.309Z,99316.91
2022-08-03T18:49:20.438Z,99320.00
2022-08-03T18:51:49.380Z,99316.00
2022-08-03T18:54:51.740Z,99315.69
2022-08-03T18:57:30.346Z,99315.53
2022-08-03T19:00:15.033Z,99323.16
2022-08-03T19:02:50.602Z,99321.38
2022-08-03T19:05:23.545Z,99325.31
2022-08-03T19:08:22.954Z,99323.75
2022-08-03T19:11:02.983Z,99327.69
2022-08-03T19:13:50.376Z,99329.44
2022-08-03T19:16:30.461Z,99334.75
2022-08-03T19:18:59.739Z,99331.69
2022-08-03T19:21:28.998Z,99342.00
2022-08-03T19:23:55.822Z,99342.59
2022-08-03T19:26:30.872Z,99342.38
2022-08-03T19:28:59.167Z,99352.69
2022-08-03T19:34:15.311Z,99344.63
2022-08-03T19:36:43.754Z,99346.63
2022-08-03T19:39:12.552Z,99354.22
2022-08-03T19:41:42.058Z,99355.19
2022-08-03T19:44:13.139Z,99359.94
2022-08-03T19:46:53.487Z,99366.50
2022-08-03T19:49:23.739Z,99366.97
2022-08-03T19:52:10.909Z,99373.25
2022-08-03T19:54:53.643Z,99360.31
2022-08-03T19:57:25.332Z,99370.47
2022-08-03T19:59:53.837Z,99366.84
2022-08-03T20:02:27.004Z,99374.25
2022-08-03T20:04:59.584Z,99372.84
2022-08-03T20:07:28.683Z,99369.63
2022-08-03T20:09:56.533Z,99367.09
2022-08-03T20:12:26.492Z,99367.09
2022-08-03T20:14:57.492Z,99359.53
2022-08-03T20:17:54.065Z,99370.94
2022-08-03T20:20:12.136Z,99373.16
2022-08-03T20:22:45.463Z,99387.56
2022-08-03T20:25:16.273Z,99377.16
2022-08-03T20:28:07.056Z,99384.56
2022-08-03T20:30:36.930Z,99389.00
2022-08-03T20:33:04.361Z,99393.44
2022-08-03T20:35:32.598Z,99406.78
2022-08-03T20:38:00.132Z,99402.59
2022-08-03T20:40:27.433Z,99413.28
2022-08-03T20:42:55.472Z,99411.72
2022-08-03T20:46:00.322Z,99405.84
2022-08-03T20:48:10.250Z,99403.75
2022-08-03T20:50:39.222Z,99405.28
2022-08-03T20:53:07.141Z,99409.91
2022-08-03T20:55:47.608Z,99416.81
2022-08-03T20:58:23.721Z,99414.75
2022-08-03T21:00:51.483Z,99424.47
2022-08-03T21:03:18.767Z,99419.63
2022-08-03T21:05:51.690Z,99418.78
2022-08-03T21:08:22.661Z,99413.19
2022-08-03T21:10:52.523Z,99415.28
2022-08-03T21:13:02.401Z,99356.63
2022-08-03T21:13:35.276Z,99420.00
2022-08-03T21:16:13.910Z,99416.38
2022-08-03T21:18:51.816Z,99423.66
2022-08-03T21:21:20.370Z,99422.81
2022-08-03T21:23:50.675Z,99422.16
2022-08-03T21:26:19.823Z,99423.38
2022-08-03T21:28:56.969Z,99419.88
2022-08-03T21:31:26.481Z,99425.16
2022-08-03T21:33:58.390Z,99423.56
2022-08-03T21:36:28.610Z,99425.72
2022-08-03T21:38:57.410Z,99429.38
2022-08-03T21:41:29.033Z,99423.16
2022-08-03T21:43:55.974Z,99424.97
2022-08-03T21:46:23.448Z,99425.13
2022-08-03T21:48:56.191Z,99424.28
2022-08-03T21:51:25.459Z,99425.47
2022-08-03T21:54:03.838Z,99423.69
2022-08-03T21:56:41.543Z,99422.13
2022-08-03T21:59:19.802Z,99431.84
2022-08-03T22:01:49.393Z,99430.94
2022-08-03T22:04:50.315Z,99436.66
2022-08-03T22:07:08.341Z,99435.06
2022-08-03T22:09:36.141Z,99432.69
2022-08-03T22:12:03.920Z,99433.44
2022-08-03T22:14:33.012Z,99437.13
2022-08-03T22:17:00.751Z,99425.88
2022-08-03T22:19:32.700Z,99431.44
2022-08-03T22:22:00.426Z,99425.66
2022-08-03T22:24:30.210Z,99431.75
2022-08-03T22:27:15.617Z,99427.84
2022-08-03T22:29:43.232Z,99430.59
2022-08-03T22:32:09.961Z,99431.44
2022-08-03T22:34:37.399Z,99426.78
2022-08-03T22:37:05.039Z,99441.69
2022-08-03T22:39:32.145Z,99441.34
2022-08-03T22:41:59.832Z,99445.84
2022-08-03T22:44:27.268Z,99445.25
2022-08-03T22:46:54.028Z,99448.91
2022-08-03T22:49:22.177Z,99460.91
2022-08-03T22:51:51.750Z,99458.22
2022-08-03T22:54:19.551Z,99459.66
2022-08-03T22:56:46.835Z,99461.53
2022-08-03T22:59:40.784Z,99457.28
2022-08-03T23:02:15.093Z,99467.50
2022-08-03T23:04:51.935Z,99469.69
2022-08-03T23:07:30.116Z,99478.97
2022-08-03T23:09:58.082Z,99482.09
2022-08-03T23:12:25.302Z,99480.09
2022-08-03T23:14:59.617Z,99479.00
2022-08-03T23:17:27.175Z,99479.78
2022-08-03T23:19:55.753Z,99477.13
2022-08-03T23:22:29.920Z,99480.09
2022-08-03T23:24:58.910Z,99479.50
2022-08-03T23:27:27.111Z,99483.78
2022-08-03T23:29:54.023Z,99487.75
2022-08-03T23:32:21.425Z,99486.97
2022-08-03T23:35:08.447Z,99491.25
2022-08-03T23:38:04.830Z,99492.34
2022-08-03T23:40:25.969Z,99489.63
2022-08-03T23:42:52.932Z,99490.22
2022-08-03T23:45:20.891Z,99497.63
2022-08-03T23:47:48.331Z,99495.78
2022-08-03T23:50:15.106Z,99495.22
2022-08-03T23:53:06.390Z,99481.41
2022-08-03T23:56:10.155Z,99485.81
2022-08-03T23:58:54.991Z,99498.53
